Time;durP1;ratioP1;P1;durP2;ratioP2;P2;SDS_P1;SDS_P2;PMS_P1;PMS_P2;Temp;Humidity;BMP_temperature;BMP_pressure;BME280_temperature;BME280_humidity;BME280_pressure;Samples;Min_cycle;Max_cycle;Signal;HPM_P1;HPM_P2
2024/02/28 00:00:46;;;;;;;31.63;23.63;;;;;;;;;;748301;185;964999;-66
2024/02/28 00:03:12;;;;;;;31.13;20.70;;;;;;;;;;752271;184;920455;-65
2024/02/28 00:05:38;;;;;;;26.50;18.97;;;;;;;;;;751253;184;941301;-66
2024/02/28 00:08:04;;;;;;;30.57;18.27;;;;;;;;;;747888;185;921136;-67
2024/02/28 00:10:30;;;;;;;38.00;23.20;;;;;;;;;;749375;185;823194;-66
2024/02/28 00:12:55;;;;;;;32.30;20.63;;;;;;;;;;749606;187;817940;-66
2024/02/28 00:15:21;;;;;;;32.27;20.70;;;;;;;;;;745382;185;817612;-66
2024/02/28 00:17:47;;;;;;;33.53;22.77;;;;;;;;;;751061;185;817902;-67
2024/02/28 00:20:13;;;;;;;27.50;18.60;;;;;;;;;;755406;185;921681;-65
2024/02/28 00:22:39;;;;;;;33.17;22.57;;;;;;;;;;750630;185;918770;-65
2024/02/28 00:25:06;;;;;;;40.40;22.93;;;;;;;;;;753154;185;919253;-66
2024/02/28 00:27:31;;;;;;;33.90;23.10;;;;;;;;;;753275;185;919226;-66
2024/02/28 00:29:56;;;;;;;33.23;23.17;;;;;;;;;;747348;185;825258;-66
2024/02/28 00:32:22;;;;;;;27.83;19.30;;;;;;;;;;749616;185;919667;-67
2024/02/28 00:34:48;;;;;;;27.70;17.03;;;;;;;;;;754779;185;927830;-66
2024/02/28 00:37:14;;;;;;;26.13;18.53;;;;;;;;;;751951;187;928473;-66
2024/02/28 00:39:40;;;;;;;27.93;19.40;;;;;;;;;;751915;184;914344;-67
2024/02/28 00:42:06;;;;;;;27.70;19.60;;;;;;;;;;750542;184;925259;-66
2024/02/28 00:44:33;;;;;;;32.83;21.07;;;;;;;;;;759013;184;850606;-66
2024/02/28 00:46:58;;;;;;;27.00;18.43;;;;;;;;;;751594;183;920550;-67
2024/02/28 00:49:24;;;;;;;33.53;20.37;;;;;;;;;;749087;185;919325;-64
2024/02/28 00:51:50;;;;;;;25.63;17.60;;;;;;;;;;755294;185;906484;-67
2024/02/28 00:54:16;;;;;;;24.33;18.40;;;;;;;;;;748278;185;900840;-65
2024/02/28 00:56:42;;;;;;;32.50;18.97;;;;;;;;;;749695;184;914288;-66
2024/02/28 00:59:10;;;;;;;26.15;16.52;;;;;;;;;;752929;185;886799;-65
2024/02/28 01:01:34;;;;;;;33.03;18.10;;;;;;;;;;752814;184;812938;-65
2024/02/28 01:04:00;;;;;;;30.30;19.67;;;;;;;;;;747452;185;919061;-66
2024/02/28 01:06:25;;;;;;;29.57;17.67;;;;;;;;;;750751;185;919383;-66
2024/02/28 01:08:51;;;;;;;32.83;20.00;;;;;;;;;;754063;185;920555;-68
2024/02/28 01:11:17;;;;;;;34.13;19.83;;;;;;;;;;751045;185;918701;-66
2024/02/28 01:13:43;;;;;;;29.23;17.70;;;;;;;;;;751558;185;919325;-65
2024/02/28 01:16:09;;;;;;;31.10;20.00;;;;;;;;;;755100;185;915292;-65
2024/02/28 01:18:35;;;;;;;28.70;20.10;;;;;;;;;;747074;184;912901;-66
2024/02/28 01:21:00;;;;;;;36.03;20.97;;;;;;;;;;747693;185;915473;-67
2024/02/28 01:23:26;;;;;;;34.37;19.60;;;;;;;;;;748715;185;915653;-65
2024/02/28 01:25:52;;;;;;;33.00;18.87;;;;;;;;;;754359;184;912379;-66
2024/02/28 01:28:18;;;;;;;31.10;20.50;;;;;;;;;;747454;184;918376;-66
2024/02/28 01:30:44;;;;;;;33.57;21.77;;;;;;;;;;750197;185;918035;-66
2024/02/28 01:33:12;;;;;;;34.33;21.98;;;;;;;;;;753023;185;868511;-66
2024/02/28 01:35:35;;;;;;;38.47;24.40;;;;;;;;;;751832;185;872565;-66
2024/02/28 01:38:02;;;;;;;35.93;23.87;;;;;;;;;;752479;185;918342;-66
2024/02/28 01:40:27;;;;;;;44.67;25.90;;;;;;;;;;760751;184;921187;-66
2024/02/28 01:42:53;;;;;;;43.90;25.63;;;;;;;;;;743938;185;1044921;-65
2024/02/28 01:45:19;;;;;;;39.90;25.40;;;;;;;;;;748182;185;899336;-66
2024/02/28 01:47:45;;;;;;;53.93;29.50;;;;;;;;;;750215;185;1021758;-66
2024/02/28 01:50:11;;;;;;;42.57;25.17;;;;;;;;;;754020;185;919213;-66
2024/02/28 01:52:36;;;;;;;52.03;28.30;;;;;;;;;;751524;184;918862;-65
2024/02/28 01:55:02;;;;;;;55.40;27.37;;;;;;;;;;749200;185;919265;-66
2024/02/28 01:57:28;;;;;;;53.27;29.03;;;;;;;;;;761323;185;761197;-68
2024/02/28 01:59:55;;;;;;;36.27;24.20;;;;;;;;;;750981;185;864928;-67
2024/02/28 02:02:20;;;;;;;42.10;26.90;;;;;;;;;;751058;185;918330;-66
2024/02/28 02:04:46;;;;;;;51.07;27.57;;;;;;;;;;758175;185;815884;-65
2024/02/28 02:07:11;;;;;;;46.20;28.50;;;;;;;;;;750612;183;873091;-66
2024/02/28 02:09:37;;;;;;;52.07;27.80;;;;;;;;;;750199;185;919653;-67
2024/02/28 02:12:03;;;;;;;52.07;30.00;;;;;;;;;;750881;184;818604;-66
2024/02/28 02:14:29;;;;;;;51.07;32.17;;;;;;;;;;751420;185;816958;-66
2024/02/28 02:16:55;;;;;;;57.07;31.20;;;;;;;;;;748519;185;919520;-66
2024/02/28 02:19:22;;;;;;;55.50;31.90;;;;;;;;;;751417;185;846228;-66
2024/02/28 02:21:50;;;;;;;48.00;29.70;;;;;;;;;;754053;184;935279;-67
2024/02/28 02:24:16;;;;;;;53.00;32.77;;;;;;;;;;748926;184;919124;-66
2024/02/28 02:26:44;;;;;;;59.07;33.40;;;;;;;;;;751120;185;918067;-66
2024/02/28 02:29:09;;;;;;;63.57;35.90;;;;;;;;;;754109;182;846920;-66
2024/02/28 02:31:34;;;;;;;54.23;33.20;;;;;;;;;;747826;187;919315;-66
2024/02/28 02:34:00;;;;;;;55.03;34.93;;;;;;;;;;751765;185;909928;-66
2024/02/28 02:36:26;;;;;;;65.77;37.07;;;;;;;;;;748023;184;912910;-66
2024/02/28 02:38:51;;;;;;;62.53;35.77;;;;;;;;;;755403;180;922239;-66
2024/02/28 02:41:17;;;;;;;62.87;37.50;;;;;;;;;;747753;185;913954;-66
2024/02/28 02:43:43;;;;;;;64.47;38.20;;;;;;;;;;750672;185;914703;-66
2024/02/28 02:46:09;;;;;;;56.70;32.80;;;;;;;;;;755554;185;843556;-65
2024/02/28 02:48:35;;;;;;;63.83;37.30;;;;;;;;;;751599;185;890866;-66
2024/02/28 02:51:01;;;;;;;59.17;35.87;;;;;;;;;;748026;185;920442;-68
2024/02/28 02:53:26;;;;;;;64.83;35.00;;;;;;;;;;755679;184;919006;-66
2024/02/28 02:55:53;;;;;;;66.10;37.10;;;;;;;;;;748411;185;919668;-67
2024/02/28 02:58:18;;;;;;;70.00;36.40;;;;;;;;;;748319;185;890971;-68
2024/02/28 03:00:44;;;;;;;65.40;35.40;;;;;;;;;;750573;184;931032;-66
2024/02/28 03:03:10;;;;;;;60.63;36.90;;;;;;;;;;749466;187;920784;-66
2024/02/28 03:05:36;;;;;;;66.37;37.20;;;;;;;;;;750269;184;919533;-67
2024/02/28 03:08:02;;;;;;;68.60;37.07;;;;;;;;;;749543;185;918904;-66
2024/02/28 03:10:27;;;;;;;61.08;35.75;;;;;;;;;;755764;184;920107;-65
2024/02/28 03:12:53;;;;;;;68.63;36.70;;;;;;;;;;749571;185;1024597;-68
2024/02/28 03:15:19;;;;;;;62.17;35.77;;;;;;;;;;747714;185;816700;-65
2024/02/28 03:17:45;;;;;;;58.90;36.87;;;;;;;;;;755868;185;814686;-66
2024/02/28 03:20:13;;;;;;;74.20;36.97;;;;;;;;;;750537;185;789488;-67
2024/02/28 03:22:37;;;;;;;67.87;37.50;;;;;;;;;;749835;185;816138;-66
2024/02/28 03:25:04;;;;;;;66.28;34.53;;;;;;;;;;756220;184;918422;-66
2024/02/28 03:27:30;;;;;;;73.10;37.13;;;;;;;;;;755467;183;919660;-66
2024/02/28 03:29:55;;;;;;;60.90;35.03;;;;;;;;;;752464;185;921659;-66
2024/02/28 03:32:22;;;;;;;62.17;35.67;;;;;;;;;;750353;185;919528;-66
2024/02/28 03:34:48;;;;;;;70.53;39.20;;;;;;;;;;749157;185;918502;-67
2024/02/28 03:37:13;;;;;;;68.47;36.70;;;;;;;;;;752913;185;918548;-65
2024/02/28 03:39:39;;;;;;;64.70;34.70;;;;;;;;;;746252;184;964990;-67
2024/02/28 03:42:05;;;;;;;71.40;39.80;;;;;;;;;;754265;185;916442;-66
2024/02/28 03:44:31;;;;;;;69.73;35.20;;;;;;;;;;748782;184;902035;-65
2024/02/28 03:46:57;;;;;;;65.47;36.50;;;;;;;;;;753568;185;917932;-66
2024/02/28 03:49:23;;;;;;;78.15;38.60;;;;;;;;;;755286;185;967084;-66
2024/02/28 03:51:49;;;;;;;77.60;38.27;;;;;;;;;;756600;185;940584;-66
2024/02/28 03:54:15;;;;;;;69.10;35.40;;;;;;;;;;747011;185;914814;-68
2024/02/28 03:56:41;;;;;;;71.10;39.03;;;;;;;;;;748310;185;1017617;-66
2024/02/28 03:59:07;;;;;;;82.10;39.90;;;;;;;;;;756608;185;918480;-65
2024/02/28 04:01:33;;;;;;;77.33;41.47;;;;;;;;;;751543;185;832961;-66
2024/02/28 04:03:59;;;;;;;73.57;39.10;;;;;;;;;;749093;185;916594;-65
2024/02/28 04:06:24;;;;;;;74.82;42.58;;;;;;;;;;752468;185;920739;-66
2024/02/28 04:08:50;;;;;;;75.20;41.57;;;;;;;;;;749309;185;916146;-66
2024/02/28 04:11:16;;;;;;;75.40;40.70;;;;;;;;;;749149;184;912997;-65
2024/02/28 04:13:42;;;;;;;80.77;40.63;;;;;;;;;;755062;184;851931;-69
2024/02/28 04:16:08;;;;;;;86.40;43.80;;;;;;;;;;750833;184;1023528;-66
2024/02/28 04:18:34;;;;;;;88.13;47.87;;;;;;;;;;751207;185;925693;-70
2024/02/28 04:20:59;;;;;;;86.30;45.93;;;;;;;;;;751597;185;920747;-65
2024/02/28 04:23:25;;;;;;;90.10;47.80;;;;;;;;;;757963;185;822402;-66
2024/02/28 04:25:51;;;;;;;96.23;52.17;;;;;;;;;;759606;184;882277;-66
2024/02/28 04:28:17;;;;;;;96.50;49.37;;;;;;;;;;755405;183;816836;-67
2024/02/28 04:30:43;;;;;;;98.25;49.90;;;;;;;;;;754540;184;817102;-65
2024/02/28 04:33:09;;;;;;;94.77;50.10;;;;;;;;;;750520;185;919009;-66
2024/02/28 04:35:34;;;;;;;102.73;48.87;;;;;;;;;;749450;185;918342;-65
2024/02/28 04:38:00;;;;;;;82.77;47.27;;;;;;;;;;754697;185;918662;-66
2024/02/28 04:40:26;;;;;;;112.93;53.17;;;;;;;;;;751428;185;921549;-66
2024/02/28 04:42:52;;;;;;;94.03;49.03;;;;;;;;;;749964;185;918384;-65
2024/02/28 04:45:18;;;;;;;158.90;75.13;;;;;;;;;;752156;185;772587;-65
2024/02/28 04:47:44;;;;;;;146.40;70.30;;;;;;;;;;753501;184;920703;-67
2024/02/28 04:50:10;;;;;;;92.80;46.50;;;;;;;;;;749878;184;915449;-67
2024/02/28 04:52:35;;;;;;;87.47;46.73;;;;;;;;;;748354;185;917064;-65
2024/02/28 04:55:01;;;;;;;88.47;44.63;;;;;;;;;;752833;184;818031;-66
2024/02/28 04:57:27;;;;;;;83.27;42.73;;;;;;;;;;747768;185;917262;-66
2024/02/28 04:59:53;;;;;;;83.43;46.00;;;;;;;;;;750702;185;917774;-66
2024/02/28 05:02:21;;;;;;;89.13;46.00;;;;;;;;;;753013;185;907724;-65
2024/02/28 05:04:45;;;;;;;90.83;44.53;;;;;;;;;;751632;185;919392;-65
2024/02/28 05:07:10;;;;;;;124.20;41.33;;;;;;;;;;751516;184;922464;-66
2024/02/28 05:09:36;;;;;;;110.50;42.50;;;;;;;;;;754073;184;818517;-66
2024/02/28 05:12:02;;;;;;;105.20;38.10;;;;;;;;;;759902;183;867262;-66
2024/02/28 05:14:28;;;;;;;179.10;47.83;;;;;;;;;;749468;185;913231;-64
2024/02/28 05:16:54;;;;;;;119.40;42.23;;;;;;;;;;748384;184;917910;-67
2024/02/28 05:19:20;;;;;;;125.70;44.67;;;;;;;;;;756800;185;813267;-66
2024/02/28 05:21:46;;;;;;;139.57;45.40;;;;;;;;;;752476;183;628892;-68
2024/02/28 05:24:11;;;;;;;164.97;47.13;;;;;;;;;;753689;182;643341;-67
2024/02/28 05:26:37;;;;;;;127.07;43.47;;;;;;;;;;755263;184;1077929;-66
2024/02/28 05:29:03;;;;;;;156.93;44.33;;;;;;;;;;753489;184;864926;-66
2024/02/28 05:31:29;;;;;;;158.27;46.87;;;;;;;;;;755557;185;627898;-67
2024/02/28 05:33:56;;;;;;;128.70;44.40;;;;;;;;;;753938;184;886390;-67
2024/02/28 05:36:21;;;;;;;139.30;43.37;;;;;;;;;;752449;184;795568;-66
2024/02/28 05:38:47;;;;;;;156.37;51.87;;;;;;;;;;753120;184;627801;-67
2024/02/28 05:41:13;;;;;;;117.87;48.97;;;;;;;;;;751789;185;622487;-66
2024/02/28 05:43:38;;;;;;;176.33;56.63;;;;;;;;;;756861;185;624729;-66
2024/02/28 05:46:04;;;;;;;112.03;41.33;;;;;;;;;;751719;185;625099;-68
2024/02/28 05:48:30;;;;;;;116.83;47.27;;;;;;;;;;752195;185;633978;-66
2024/02/28 05:50:56;;;;;;;109.30;47.50;;;;;;;;;;759004;185;622916;-65
2024/02/28 05:53:22;;;;;;;111.43;45.47;;;;;;;;;;756735;182;637216;-67
2024/02/28 05:55:47;;;;;;;105.00;50.83;;;;;;;;;;754546;185;625919;-67
2024/02/28 05:58:13;;;;;;;128.37;52.73;;;;;;;;;;758284;184;625527;-66
2024/02/28 06:00:39;;;;;;;105.10;44.57;;;;;;;;;;752321;185;633109;-67
2024/02/28 06:03:05;;;;;;;105.17;46.63;;;;;;;;;;751626;184;624879;-67
2024/02/28 06:05:31;;;;;;;71.80;35.60;;;;;;;;;;748467;185;856661;-66
2024/02/28 06:07:57;;;;;;;104.40;46.27;;;;;;;;;;751205;184;814676;-65
2024/02/28 06:10:23;;;;;;;171.13;50.03;;;;;;;;;;748237;184;906101;-67
2024/02/28 06:12:49;;;;;;;156.37;51.70;;;;;;;;;;751693;185;911215;-66
2024/02/28 06:15:15;;;;;;;186.67;53.03;;;;;;;;;;751348;185;922475;-66
2024/02/28 06:17:40;;;;;;;106.50;44.97;;;;;;;;;;750534;185;919884;-68
2024/02/28 06:20:07;;;;;;;105.97;46.10;;;;;;;;;;750582;184;815305;-66
2024/02/28 06:22:32;;;;;;;91.07;44.23;;;;;;;;;;754379;185;817305;-67
2024/02/28 06:24:58;;;;;;;131.93;52.90;;;;;;;;;;750365;185;844501;-66
2024/02/28 06:27:26;;;;;;;106.47;44.77;;;;;;;;;;752541;185;920577;-68
2024/02/28 06:29:50;;;;;;;109.87;52.00;;;;;;;;;;748595;184;920122;-66
2024/02/28 06:32:16;;;;;;;101.10;49.23;;;;;;;;;;752794;187;918155;-66
2024/02/28 06:34:42;;;;;;;112.10;47.47;;;;;;;;;;758988;185;718501;-66
2024/02/28 06:37:08;;;;;;;105.07;46.10;;;;;;;;;;760071;184;717964;-65
2024/02/28 06:39:33;;;;;;;98.70;44.93;;;;;;;;;;766271;184;816326;-66
2024/02/28 06:41:59;;;;;;;93.17;43.63;;;;;;;;;;751616;185;923989;-66
2024/02/28 06:44:25;;;;;;;89.70;45.50;;;;;;;;;;751759;183;817012;-66
2024/02/28 06:46:51;;;;;;;82.50;44.30;;;;;;;;;;757374;185;784552;-66
2024/02/28 06:49:17;;;;;;;98.63;46.90;;;;;;;;;;749920;185;914284;-65
2024/02/28 06:51:43;;;;;;;81.77;45.27;;;;;;;;;;750212;185;919617;-66
2024/02/28 06:54:10;;;;;;;89.73;46.63;;;;;;;;;;750398;184;924059;-67
2024/02/28 06:56:36;;;;;;;93.70;47.87;;;;;;;;;;755085;184;787978;-68
2024/02/28 06:59:01;;;;;;;88.15;47.00;;;;;;;;;;752699;183;853074;-65
2024/02/28 07:01:27;;;;;;;95.73;47.60;;;;;;;;;;752037;184;922045;-65
2024/02/28 07:03:53;;;;;;;96.50;48.97;;;;;;;;;;754414;185;833659;-66
2024/02/28 07:06:19;;;;;;;88.80;48.50;;;;;;;;;;748864;185;920176;-66
2024/02/28 07:08:44;;;;;;;94.70;47.40;;;;;;;;;;751996;184;918379;-67
2024/02/28 07:11:13;;;;;;;218.90;109.47;;;;;;;;;;753010;184;875814;-66
2024/02/28 07:13:39;;;;;;;92.63;48.07;;;;;;;;;;752325;182;920050;-66
2024/02/28 07:16:05;;;;;;;98.60;57.00;;;;;;;;;;750382;184;919262;-66
2024/02/28 07:18:30;;;;;;;109.80;57.23;;;;;;;;;;750074;185;816353;-66
2024/02/28 07:20:56;;;;;;;99.37;56.27;;;;;;;;;;747051;187;931878;-66
2024/02/28 07:23:22;;;;;;;90.40;46.40;;;;;;;;;;750067;184;879852;-66
2024/02/28 07:25:48;;;;;;;80.55;44.80;;;;;;;;;;749159;185;820080;-67
2024/02/28 07:28:14;;;;;;;98.87;53.53;;;;;;;;;;753925;185;918554;-69
2024/02/28 07:30:40;;;;;;;97.33;50.43;;;;;;;;;;750878;184;816145;-68
2024/02/28 07:33:06;;;;;;;90.27;50.27;;;;;;;;;;753341;185;816652;-68
2024/02/28 07:35:31;;;;;;;94.73;45.07;;;;;;;;;;753323;184;877733;-66
2024/02/28 07:37:57;;;;;;;91.90;45.70;;;;;;;;;;747618;185;909268;-65
2024/02/28 07:40:23;;;;;;;81.90;47.17;;;;;;;;;;749277;185;1028557;-67
2024/02/28 07:42:49;;;;;;;86.63;44.47;;;;;;;;;;752093;185;817586;-66
2024/02/28 07:45:15;;;;;;;89.07;49.50;;;;;;;;;;747881;187;816316;-66
2024/02/28 07:47:41;;;;;;;85.87;49.07;;;;;;;;;;750676;185;819033;-66
2024/02/28 07:50:07;;;;;;;87.57;46.70;;;;;;;;;;747853;184;862795;-67
2024/02/28 07:52:35;;;;;;;72.13;42.50;;;;;;;;;;756954;184;918149;-66
2024/02/28 07:54:59;;;;;;;85.93;45.07;;;;;;;;;;751801;185;919323;-66
2024/02/28 07:57:25;;;;;;;76.10;43.77;;;;;;;;;;753896;185;875710;-65
2024/02/28 07:59:51;;;;;;;79.83;43.87;;;;;;;;;;758271;185;723268;-66
2024/02/28 08:02:19;;;;;;;90.77;50.30;;;;;;;;;;750022;184;919067;-65
2024/02/28 08:04:43;;;;;;;76.77;42.40;;;;;;;;;;747202;185;919970;-68
2024/02/28 08:07:09;;;;;;;80.68;44.42;;;;;;;;;;754395;185;919569;-65
2024/02/28 08:09:35;;;;;;;78.63;47.37;;;;;;;;;;746816;186;916438;-66
2024/02/28 08:12:01;;;;;;;129.13;67.47;;;;;;;;;;748691;185;849128;-65
2024/02/28 08:14:27;;;;;;;146.00;76.97;;;;;;;;;;750156;185;919043;-65
2024/02/28 08:16:53;;;;;;;152.77;78.47;;;;;;;;;;757453;185;857652;-66
2024/02/28 08:19:18;;;;;;;135.67;74.83;;;;;;;;;;752570;185;919141;-64
2024/02/28 08:21:44;;;;;;;107.35;56.30;;;;;;;;;;752843;185;818218;-67
2024/02/28 08:24:10;;;;;;;89.53;48.80;;;;;;;;;;750346;184;903443;-66
2024/02/28 08:26:36;;;;;;;80.33;45.53;;;;;;;;;;748879;185;918592;-66
2024/02/28 08:29:02;;;;;;;90.27;49.10;;;;;;;;;;751226;185;775230;-66
2024/02/28 08:31:28;;;;;;;84.60;48.87;;;;;;;;;;755510;184;839386;-67
2024/02/28 08:33:55;;;;;;;70.77;42.30;;;;;;;;;;748529;185;918460;-66
2024/02/28 08:36:19;;;;;;;88.73;43.40;;;;;;;;;;750674;185;918460;-69
2024/02/28 08:38:45;;;;;;;74.23;43.70;;;;;;;;;;747634;184;918987;-63
2024/02/28 08:41:12;;;;;;;76.40;41.80;;;;;;;;;;756546;184;918817;-66
2024/02/28 08:43:39;;;;;;;86.97;47.50;;;;;;;;;;754847;184;920187;-66
2024/02/28 08:46:04;;;;;;;76.47;42.23;;;;;;;;;;752061;185;914570;-67
2024/02/28 08:48:30;;;;;;;68.62;40.22;;;;;;;;;;756955;184;816981;-65
2024/02/28 08:50:56;;;;;;;61.57;37.57;;;;;;;;;;750058;185;915218;-66
2024/02/28 08:53:22;;;;;;;66.53;38.40;;;;;;;;;;747766;185;1025606;-66
2024/02/28 08:55:48;;;;;;;65.15;41.15;;;;;;;;;;755046;185;852787;-67
2024/02/28 08:58:14;;;;;;;66.13;40.10;;;;;;;;;;750691;185;924003;-65
2024/02/28 09:00:40;;;;;;;71.03;41.77;;;;;;;;;;751705;185;922361;-64
2024/02/28 09:03:05;;;;;;;70.73;42.20;;;;;;;;;;753809;184;915940;-64
2024/02/28 09:05:31;;;;;;;65.03;40.00;;;;;;;;;;756433;185;920646;-65
2024/02/28 09:07:57;;;;;;;69.80;40.27;;;;;;;;;;752542;185;820847;-66
2024/02/28 09:10:24;;;;;;;61.40;38.80;;;;;;;;;;751529;185;899391;-66
2024/02/28 09:12:49;;;;;;;68.43;38.47;;;;;;;;;;752491;185;931166;-65
2024/02/28 09:15:15;;;;;;;61.27;38.60;;;;;;;;;;750905;185;822708;-65
2024/02/28 09:17:41;;;;;;;71.03;42.57;;;;;;;;;;749872;185;820351;-65
2024/02/28 09:20:08;;;;;;;65.50;40.30;;;;;;;;;;759132;185;741063;-66
2024/02/28 09:22:33;;;;;;;60.97;38.17;;;;;;;;;;750420;184;711212;-65
2024/02/28 09:24:59;;;;;;;72.90;38.57;;;;;;;;;;749715;185;810586;-67
2024/02/28 09:27:25;;;;;;;78.90;41.15;;;;;;;;;;747722;184;927015;-66
2024/02/28 09:29:51;;;;;;;67.77;39.97;;;;;;;;;;755916;184;816629;-66
2024/02/28 09:32:18;;;;;;;65.40;41.70;;;;;;;;;;751159;185;913703;-67
2024/02/28 09:34:42;;;;;;;66.62;39.03;;;;;;;;;;751556;185;908104;-66
2024/02/28 09:37:08;;;;;;;67.97;41.50;;;;;;;;;;754358;184;758969;-68
2024/02/28 09:39:34;;;;;;;67.13;41.63;;;;;;;;;;750697;184;914031;-65
2024/02/28 09:42:00;;;;;;;64.10;39.97;;;;;;;;;;748951;185;810851;-65
2024/02/28 09:44:26;;;;;;;74.83;43.20;;;;;;;;;;755065;185;847575;-66
2024/02/28 09:46:52;;;;;;;65.67;40.40;;;;;;;;;;749637;185;1021422;-66
2024/02/28 09:49:17;;;;;;;68.47;40.20;;;;;;;;;;747636;185;924517;-66
2024/02/28 09:51:43;;;;;;;67.43;38.50;;;;;;;;;;750450;185;917721;-66
2024/02/28 09:54:09;;;;;;;60.00;37.47;;;;;;;;;;759657;184;907990;-64
2024/02/28 09:56:35;;;;;;;69.30;40.80;;;;;;;;;;748770;185;1040988;-65
2024/02/28 09:59:03;;;;;;;63.17;36.93;;;;;;;;;;746971;185;919103;-68
2024/02/28 10:01:30;;;;;;;77.30;42.73;;;;;;;;;;754625;185;862355;-67
2024/02/28 10:03:56;;;;;;;79.13;43.10;;;;;;;;;;750274;185;910568;-66
2024/02/28 10:06:21;;;;;;;58.57;35.70;;;;;;;;;;751183;184;928738;-64
2024/02/28 10:08:48;;;;;;;66.67;37.00;;;;;;;;;;755314;185;758119;-65
2024/02/28 10:11:17;;;;;;;67.53;40.10;;;;;;;;;;749915;185;818804;-67
2024/02/28 10:13:43;;;;;;;62.87;38.27;;;;;;;;;;758825;183;622392;-67
2024/02/28 10:16:09;;;;;;;58.43;36.33;;;;;;;;;;751696;184;916484;-65
2024/02/28 10:18:35;;;;;;;69.47;35.27;;;;;;;;;;756455;185;801621;-64
2024/02/28 10:21:01;;;;;;;57.63;35.33;;;;;;;;;;752019;185;921346;-65
2024/02/28 10:23:27;;;;;;;60.37;37.00;;;;;;;;;;754387;184;916170;-65
2024/02/28 10:25:53;;;;;;;59.77;37.27;;;;;;;;;;754811;185;812668;-65
2024/02/28 10:28:19;;;;;;;60.37;39.73;;;;;;;;;;750858;185;912522;-67
2024/02/28 10:30:44;;;;;;;61.73;37.40;;;;;;;;;;750539;184;844795;-67
2024/02/28 10:33:11;;;;;;;50.12;32.95;;;;;;;;;;751909;184;915911;-64
2024/02/28 10:35:36;;;;;;;60.57;35.77;;;;;;;;;;758767;181;915554;-67
2024/02/28 10:38:02;;;;;;;52.10;31.17;;;;;;;;;;750050;185;814070;-67
2024/02/28 10:40:28;;;;;;;51.47;29.03;;;;;;;;;;748397;185;920353;-65
2024/02/28 10:42:54;;;;;;;32.10;23.07;;;;;;;;;;757779;184;817337;-67
2024/02/28 10:45:20;;;;;;;24.80;15.30;;;;;;;;;;754358;185;816031;-65
2024/02/28 10:47:47;;;;;;;27.73;15.53;;;;;;;;;;748659;185;823217;-65
2024/02/28 10:50:12;;;;;;;21.00;16.03;;;;;;;;;;753781;185;826147;-67
2024/02/28 10:52:37;;;;;;;26.60;15.90;;;;;;;;;;745827;185;920884;-68
2024/02/28 10:55:04;;;;;;;27.00;16.53;;;;;;;;;;752751;185;816160;-65
2024/02/28 10:57:30;;;;;;;22.57;12.43;;;;;;;;;;753480;185;919154;-65
2024/02/28 10:59:55;;;;;;;21.33;13.70;;;;;;;;;;751514;184;623405;-67
2024/02/28 11:02:21;;;;;;;28.87;15.70;;;;;;;;;;748036;184;927304;-67
2024/02/28 11:04:47;;;;;;;26.43;15.07;;;;;;;;;;748658;187;918710;-68
2024/02/28 11:07:13;;;;;;;25.70;13.20;;;;;;;;;;753414;184;918235;-65
2024/02/28 11:09:39;;;;;;;22.57;12.60;;;;;;;;;;750559;184;652798;-67
2024/02/28 11:12:05;;;;;;;21.80;13.85;;;;;;;;;;751272;184;910703;-67
2024/02/28 11:14:31;;;;;;;21.43;14.40;;;;;;;;;;757709;185;917779;-65
2024/02/28 11:17:02;;;;;;;25.90;13.87;;;;;;;;;;749077;185;948464;-65
2024/02/28 11:19:28;;;;;;;25.03;13.80;;;;;;;;;;752174;185;918874;-66
2024/02/28 11:21:54;;;;;;;25.27;16.00;;;;;;;;;;753958;182;654747;-67
2024/02/28 11:24:20;;;;;;;26.37;13.53;;;;;;;;;;755866;184;919255;-66
2024/02/28 11:26:45;;;;;;;22.13;13.70;;;;;;;;;;748168;184;919673;-66
2024/02/28 11:29:12;;;;;;;27.07;15.57;;;;;;;;;;750193;183;917030;-65
2024/02/28 11:31:37;;;;;;;24.70;16.10;;;;;;;;;;757578;185;918308;-65
2024/02/28 11:34:03;;;;;;;29.03;16.50;;;;;;;;;;752491;185;855639;-66
2024/02/28 11:36:29;;;;;;;29.20;17.33;;;;;;;;;;751717;185;917761;-68
2024/02/28 11:38:55;;;;;;;22.47;16.10;;;;;;;;;;753842;185;908563;-65
2024/02/28 11:41:29;;;;;;;21.67;16.27;;;;;;;;;;751567;185;846303;-65
2024/02/28 11:43:55;;;;;;;31.40;15.57;;;;;;;;;;749207;185;925435;-66
2024/02/28 11:46:21;;;;;;;21.10;14.40;;;;;;;;;;749850;185;819397;-65
2024/02/28 11:48:46;;;;;;;21.37;14.77;;;;;;;;;;755516;184;621534;-66
2024/02/28 11:51:12;;;;;;;26.17;18.70;;;;;;;;;;749483;185;918959;-66
2024/02/28 11:53:38;;;;;;;25.23;17.33;;;;;;;;;;751606;185;920271;-65
2024/02/28 11:56:04;;;;;;;28.90;17.10;;;;;;;;;;753088;185;915037;-66
2024/02/28 11:58:30;;;;;;;23.73;14.70;;;;;;;;;;756341;182;806920;-67
2024/02/28 12:00:56;;;;;;;24.23;16.40;;;;;;;;;;751604;185;919782;-67
2024/02/28 12:03:22;;;;;;;25.97;18.33;;;;;;;;;;749645;184;900565;-71
2024/02/28 12:05:48;;;;;;;30.80;13.43;;;;;;;;;;756308;184;820080;-68
2024/02/28 12:08:14;;;;;;;19.30;13.70;;;;;;;;;;747855;187;817326;-67
2024/02/28 12:10:40;;;;;;;29.23;14.17;;;;;;;;;;747564;185;923443;-67
2024/02/28 12:13:07;;;;;;;20.27;14.33;;;;;;;;;;748734;184;1022474;-67
2024/02/28 12:15:31;;;;;;;23.53;16.00;;;;;;;;;;751385;185;863985;-67
2024/02/28 12:17:58;;;;;;;25.47;15.80;;;;;;;;;;747067;184;922962;-65
2024/02/28 12:20:24;;;;;;;24.47;15.37;;;;;;;;;;752496;185;918906;-65
2024/02/28 12:22:50;;;;;;;24.57;14.20;;;;;;;;;;748443;185;917065;-66
2024/02/28 12:25:16;;;;;;;21.90;15.50;;;;;;;;;;753065;185;919575;-65
2024/02/28 12:27:41;;;;;;;24.60;16.30;;;;;;;;;;749125;185;918455;-66
2024/02/28 12:30:08;;;;;;;31.40;17.17;;;;;;;;;;754558;184;815877;-68
2024/02/28 12:32:34;;;;;;;25.20;15.97;;;;;;;;;;752087;184;918410;-67
2024/02/28 12:34:59;;;;;;;23.67;16.57;;;;;;;;;;749081;184;916839;-68
2024/02/28 12:37:25;;;;;;;25.33;17.33;;;;;;;;;;755807;184;921393;-67
2024/02/28 12:39:52;;;;;;;21.50;15.70;;;;;;;;;;749540;184;919253;-67
2024/02/28 12:42:17;;;;;;;26.90;18.67;;;;;;;;;;752323;185;916564;-67
2024/02/28 12:44:45;;;;;;;27.07;19.20;;;;;;;;;;756995;183;633219;-66
2024/02/28 12:47:09;;;;;;;23.50;17.27;;;;;;;;;;754991;185;630173;-65
2024/02/28 12:49:35;;;;;;;28.40;19.30;;;;;;;;;;758960;184;627379;-65
2024/02/28 12:52:01;;;;;;;28.10;19.75;;;;;;;;;;753055;184;634810;-65
2024/02/28 12:54:27;;;;;;;31.13;19.73;;;;;;;;;;755358;185;620723;-66
2024/02/28 12:56:53;;;;;;;33.50;18.47;;;;;;;;;;752433;185;815947;-67
2024/02/28 12:59:19;;;;;;;34.53;18.80;;;;;;;;;;749426;185;834827;-67
2024/02/28 13:01:47;;;;;;;31.40;20.33;;;;;;;;;;760098;185;619184;-67
2024/02/28 13:04:10;;;;;;;29.53;20.20;;;;;;;;;;753151;185;627013;-67
2024/02/28 13:06:36;;;;;;;36.03;20.77;;;;;;;;;;750766;185;816362;-67
2024/02/28 13:09:02;;;;;;;29.60;22.07;;;;;;;;;;755519;184;679248;-67
2024/02/28 13:11:28;;;;;;;36.20;21.00;;;;;;;;;;749402;185;953860;-67
2024/02/28 13:13:54;;;;;;;31.60;20.80;;;;;;;;;;752894;185;920557;-66
2024/02/28 13:16:21;;;;;;;30.80;20.70;;;;;;;;;;750934;185;1021306;-67
2024/02/28 13:18:46;;;;;;;30.20;20.83;;;;;;;;;;754775;185;623525;-66
2024/02/28 13:21:11;;;;;;;34.17;20.77;;;;;;;;;;752286;185;634100;-67
2024/02/28 13:23:37;;;;;;;33.65;21.10;;;;;;;;;;748451;185;913823;-67
2024/02/28 13:26:04;;;;;;;34.30;22.20;;;;;;;;;;752800;185;945162;-68
2024/02/28 13:28:30;;;;;;;34.57;21.90;;;;;;;;;;750208;184;918402;-67
2024/02/28 13:30:59;;;;;;;31.20;21.93;;;;;;;;;;748798;184;919790;-67
2024/02/28 13:33:26;;;;;;;29.52;20.95;;;;;;;;;;751730;184;923367;-66
2024/02/28 13:35:52;;;;;;;39.50;23.13;;;;;;;;;;753807;185;632073;-66
2024/02/28 13:38:18;;;;;;;34.47;21.40;;;;;;;;;;752450;185;648888;-66
2024/02/28 13:40:44;;;;;;;34.03;22.45;;;;;;;;;;751142;185;916788;-67
2024/02/28 13:43:09;;;;;;;33.43;21.63;;;;;;;;;;751870;185;918513;-67
2024/02/28 13:45:35;;;;;;;35.27;21.37;;;;;;;;;;747553;185;921479;-67
2024/02/28 13:48:01;;;;;;;40.90;24.53;;;;;;;;;;750676;184;908614;-65
2024/02/28 13:50:31;;;;;;;40.13;24.17;;;;;;;;;;756324;184;916695;-66
2024/02/28 13:52:53;;;;;;;37.80;25.10;;;;;;;;;;750593;185;922838;-65